sensor_id;sensor_type;location;lat;lon;timestamp;pressure;altitude;pressure_sealevel;temperature;humidity
25610;BME280;13479;49.044;8.716;2023-05-07T04:00:20;98899.84;;;12.74;85.86
25610;BME280;13479;49.044;8.716;2023-05-07T04:02:46;98906.72;;;12.77;85.99
25610;BME280;13479;49.044;8.716;2023-05-07T04:05:12;98918.22;;;12.77;86.12
25610;BME280;13479;49.044;8.716;2023-05-07T04:07:39;98919.34;;;12.75;86.33
25610;BME280;13479;49.044;8.716;2023-05-07T04:10:04;98917.69;;;12.74;86.25
25610;BME280;13479;49.044;8.716;2023-05-07T04:12:29;98915.00;;;12.74;86.34
25610;BME280;13479;49.044;8.716;2023-05-07T04:14:55;98921.31;;;12.73;86.66
25610;BME280;13479;49.044;8.716;2023-05-07T04:17:20;98922.41;;;12.80;86.64
25610;BME280;13479;49.044;8.716;2023-05-07T04:19:46;98934.81;;;12.89;86.22
25610;BME280;13479;49.044;8.716;2023-05-07T04:22:11;98938.34;;;12.90;85.92
25610;BME280;13479;49.044;8.716;2023-05-07T04:24:37;98947.84;;;12.92;85.87
25610;BME280;13479;49.044;8.716;2023-05-07T04:27:02;98958.16;;;13.05;85.93
25610;BME280;13479;49.044;8.716;2023-05-07T04:29:27;98977.91;;;13.31;84.47
25610;BME280;13479;49.044;8.716;2023-05-07T04:31:53;98972.22;;;13.43;83.94
25610;BME280;13479;49.044;8.716;2023-05-07T04:34:20;98973.84;;;13.54;83.73
25610;BME280;13479;49.044;8.716;2023-05-07T04:36:46;98967.50;;;13.73;82.49
25610;BME280;13479;49.044;8.716;2023-05-07T04:39:11;98958.72;;;13.81;82.14
25610;BME280;13479;49.044;8.716;2023-05-07T04:41:37;98956.53;;;14.03;81.00
25610;BME280;13479;49.044;8.716;2023-05-07T04:44:02;98959.22;;;14.29;78.79
25610;BME280;13479;49.044;8.716;2023-05-07T04:46:29;98936.44;;;14.43;78.10
25610;BME280;13479;49.044;8.716;2023-05-07T04:48:54;98932.81;;;14.61;76.66
25610;BME280;13479;49.044;8.716;2023-05-07T04:51:19;98924.22;;;14.75;75.28
25610;BME280;13479;49.044;8.716;2023-05-07T04:53:44;98922.94;;;14.88;74.64
25610;BME280;13479;49.044;8.716;2023-05-07T04:56:10;98913.06;;;14.88;74.43
25610;BME280;13479;49.044;8.716;2023-05-07T04:58:35;98881.00;;;14.88;74.66
25610;BME280;13479;49.044;8.716;2023-05-07T05:01:00;98878.50;;;14.95;74.66
25610;BME280;13479;49.044;8.716;2023-05-07T05:03:26;98885.53;;;15.04;74.55
25610;BME280;13479;49.044;8.716;2023-05-07T05:05:52;98870.50;;;15.03;75.36
25610;BME280;13479;49.044;8.716;2023-05-07T05:08:18;98877.19;;;15.16;74.90
25610;BME280;13479;49.044;8.716;2023-05-07T05:10:43;98906.66;;;15.32;74.07
25610;BME280;13479;49.044;8.716;2023-05-07T05:13:09;98938.09;;;15.63;72.23
25610;BME280;13479;49.044;8.716;2023-05-07T05:15:34;98934.44;;;15.81;70.55
25610;BME280;13479;49.044;8.716;2023-05-07T05:18:00;98915.69;;;15.89;70.47
25610;BME280;13479;49.044;8.716;2023-05-07T05:20:25;98911.00;;;15.99;70.05
25610;BME280;13479;49.044;8.716;2023-05-07T05:22:50;98913.47;;;16.17;69.32
25610;BME280;13479;49.044;8.716;2023-05-07T05:25:16;98902.88;;;16.32;68.64
25610;BME280;13479;49.044;8.716;2023-05-07T05:27:41;98894.78;;;16.49;68.39
25610;BME280;13479;49.044;8.716;2023-05-07T05:30:07;98913.13;;;16.68;67.38
25610;BME280;13479;49.044;8.716;2023-05-07T05:32:32;98897.84;;;16.77;66.45
25610;BME280;13479;49.044;8.716;2023-05-07T05:34:57;98892.97;;;16.81;66.39
25610;BME280;13479;49.044;8.716;2023-05-07T05:37:22;98890.88;;;17.00;65.59
25610;BME280;13479;49.044;8.716;2023-05-07T05:39:48;98889.72;;;17.64;64.27
25610;BME280;13479;49.044;8.716;2023-05-07T05:42:13;98897.63;;;18.48;62.19
25610;BME280;13479;49.044;8.716;2023-05-07T05:44:38;98902.72;;;19.32;59.47
25610;BME280;13479;49.044;8.716;2023-05-07T05:47:03;98896.16;;;19.63;57.64
25610;BME280;13479;49.044;8.716;2023-05-07T05:49:29;98882.38;;;19.72;57.31
25610;BME280;13479;49.044;8.716;2023-05-07T05:51:54;98892.41;;;20.14;56.57
25610;BME280;13479;49.044;8.716;2023-05-07T05:54:20;98887.66;;;20.51;55.63
25610;BME280;13479;49.044;8.716;2023-05-07T05:56:46;98897.69;;;21.26;52.95
25610;BME280;13479;49.044;8.716;2023-05-07T05:59:11;98912.09;;;22.79;49.44
25610;BME280;13479;49.044;8.716;2023-05-07T06:01:36;98918.91;;;24.54;43.79
25610;BME280;13479;49.044;8.716;2023-05-07T06:04:02;98931.72;;;25.87;40.53
25610;BME280;13479;49.044;8.716;2023-05-07T06:06:27;98946.91;;;26.31;38.93
25610;BME280;13479;49.044;8.716;2023-05-07T06:08:53;98959.81;;;27.00;37.58
25610;BME280;13479;49.044;8.716;2023-05-07T06:11:18;98974.25;;;28.04;35.56
25610;BME280;13479;49.044;8.716;2023-05-07T06:13:43;98978.69;;;28.45;33.94
25610;BME280;13479;49.044;8.716;2023-05-07T06:16:08;98987.88;;;27.70;33.92
25610;BME280;13479;49.044;8.716;2023-05-07T06:18:34;98993.59;;;26.04;36.32
25610;BME280;13479;49.044;8.716;2023-05-07T06:21:01;98961.78;;;25.01;38.23
25610;BME280;13479;49.044;8.716;2023-05-07T06:23:26;98931.41;;;24.55;38.44
25610;BME280;13479;49.044;8.716;2023-05-07T06:25:51;98919.34;;;24.14;38.42
25610;BME280;13479;49.044;8.716;2023-05-07T06:28:17;98901.41;;;24.31;39.76
25610;BME280;13479;49.044;8.716;2023-05-07T06:30:42;98897.28;;;25.15;39.32
25610;BME280;13479;49.044;8.716;2023-05-07T06:33:07;98946.28;;;25.81;37.37
25610;BME280;13479;49.044;8.716;2023-05-07T06:35:32;98979.50;;;25.83;37.49
25610;BME280;13479;49.044;8.716;2023-05-07T06:37:58;98967.91;;;25.15;39.16
25610;BME280;13479;49.044;8.716;2023-05-07T06:40:23;98931.88;;;24.89;39.76
25610;BME280;13479;49.044;8.716;2023-05-07T06:42:48;98915.50;;;24.96;40.43
25610;BME280;13479;49.044;8.716;2023-05-07T06:45:14;98899.09;;;24.54;41.33
25610;BME280;13479;49.044;8.716;2023-05-07T06:47:39;98890.78;;;24.48;41.12
25610;BME280;13479;49.044;8.716;2023-05-07T06:50:05;98881.84;;;24.48;40.65
25610;BME280;13479;49.044;8.716;2023-05-07T06:52:30;98883.66;;;25.03;40.01
25610;BME280;13479;49.044;8.716;2023-05-07T06:54:55;98935.03;;;26.61;37.30
25610;BME280;13479;49.044;8.716;2023-05-07T06:57:21;98952.16;;;28.23;34.56
25610;BME280;13479;49.044;8.716;2023-05-07T06:59:46;98973.69;;;29.75;32.22
25610;BME280;13479;49.044;8.716;2023-05-07T07:02:11;98991.06;;;31.30;30.74
25610;BME280;13479;49.044;8.716;2023-05-07T07:04:36;99009.03;;;32.41;28.09
25610;BME280;13479;49.044;8.716;2023-05-07T07:07:02;99021.75;;;31.22;28.45
25610;BME280;13479;49.044;8.716;2023-05-07T07:09:27;99027.97;;;30.54;30.22
25610;BME280;13479;49.044;8.716;2023-05-07T07:11:52;99026.16;;;30.32;30.28
25610;BME280;13479;49.044;8.716;2023-05-07T07:14:17;99027.34;;;30.09;30.79
25610;BME280;13479;49.044;8.716;2023-05-07T07:16:43;99020.22;;;29.80;31.66
25610;BME280;13479;49.044;8.716;2023-05-07T07:19:08;99025.78;;;29.36;30.94
25610;BME280;13479;49.044;8.716;2023-05-07T07:21:33;99008.94;;;28.60;31.57
25610;BME280;13479;49.044;8.716;2023-05-07T07:23:59;99001.22;;;28.18;32.04
25610;BME280;13479;49.044;8.716;2023-05-07T07:26:24;98999.28;;;26.74;34.11
25610;BME280;13479;49.044;8.716;2023-05-07T07:28:49;98974.63;;;25.73;35.79
25610;BME280;13479;49.044;8.716;2023-05-07T07:31:15;98971.81;;;25.92;36.30
25610;BME280;13479;49.044;8.716;2023-05-07T07:33:40;98961.50;;;26.77;35.56
25610;BME280;13479;49.044;8.716;2023-05-07T07:36:06;98969.94;;;28.43;33.67
25610;BME280;13479;49.044;8.716;2023-05-07T07:38:31;98977.53;;;29.79;31.33
25610;BME280;13479;49.044;8.716;2023-05-07T07:40:57;98997.34;;;31.15;29.23
25610;BME280;13479;49.044;8.716;2023-05-07T07:43:22;99006.81;;;32.23;27.85
25610;BME280;13479;49.044;8.716;2023-05-07T07:45:47;99031.69;;;32.99;26.79
25610;BME280;13479;49.044;8.716;2023-05-07T07:48:13;99051.91;;;33.34;26.32
25610;BME280;13479;49.044;8.716;2023-05-07T07:50:38;99055.28;;;33.15;25.75
25610;BME280;13479;49.044;8.716;2023-05-07T07:53:03;99051.09;;;34.18;25.20
25610;BME280;13479;49.044;8.716;2023-05-07T07:55:28;99058.88;;;34.99;23.94
25610;BME280;13479;49.044;8.716;2023-05-07T07:57:54;99057.16;;;35.52;23.70
25610;BME280;13479;49.044;8.716;2023-05-07T08:00:19;99056.00;;;35.72;23.21
25610;BME280;13479;49.044;8.716;2023-05-07T08:02:45;99066.22;;;35.09;23.99
25610;BME280;13479;49.044;8.716;2023-05-07T08:05:10;99059.81;;;33.46;25.64
25610;BME280;13479;49.044;8.716;2023-05-07T08:07:35;99042.25;;;32.14;27.30
25610;BME280;13479;49.044;8.716;2023-05-07T08:10:01;99036.53;;;31.16;28.64
25610;BME280;13479;49.044;8.716;2023-05-07T08:12:27;99015.78;;;31.35;29.08
25610;BME280;13479;49.044;8.716;2023-05-07T08:14:52;99015.88;;;32.39;27.88
25610;BME280;13479;49.044;8.716;2023-05-07T08:17:17;99006.59;;;33.16;27.67
25610;BME280;13479;49.044;8.716;2023-05-07T08:19:43;99022.16;;;32.60;27.50
25610;BME280;13479;49.044;8.716;2023-05-07T08:22:09;99013.97;;;32.39;28.24
25610;BME280;13479;49.044;8.716;2023-05-07T08:24:35;99008.59;;;32.94;27.62
25610;BME280;13479;49.044;8.716;2023-05-07T08:27:01;99009.78;;;33.83;26.59
25610;BME280;13479;49.044;8.716;2023-05-07T08:29:26;99013.25;;;34.29;26.22
25610;BME280;13479;49.044;8.716;2023-05-07T08:31:51;99023.56;;;35.01;25.04
25610;BME280;13479;49.044;8.716;2023-05-07T08:34:16;99038.53;;;35.77;24.22
25610;BME280;13479;49.044;8.716;2023-05-07T08:36:42;99042.34;;;36.19;23.83
25610;BME280;13479;49.044;8.716;2023-05-07T08:39:07;99047.81;;;35.86;23.91
25610;BME280;13479;49.044;8.716;2023-05-07T08:41:32;99049.38;;;35.92;23.88
25610;BME280;13479;49.044;8.716;2023-05-07T08:43:59;99053.50;;;36.28;23.45
25610;BME280;13479;49.044;8.716;2023-05-07T08:46:29;99048.09;;;36.04;23.31
25610;BME280;13479;49.044;8.716;2023-05-07T08:48:56;99053.59;;;36.84;23.33
25610;BME280;13479;49.044;8.716;2023-05-07T08:51:22;99053.75;;;36.92;22.08
25610;BME280;13479;49.044;8.716;2023-05-07T08:53:48;99043.50;;;35.99;23.65
25610;BME280;13479;49.044;8.716;2023-05-07T08:56:15;99037.81;;;35.71;24.04
25610;BME280;13479;49.044;8.716;2023-05-07T08:58:42;99036.03;;;35.80;24.13
25610;BME280;13479;49.044;8.716;2023-05-07T09:01:15;99028.63;;;36.28;24.26
25610;BME280;13479;49.044;8.716;2023-05-07T09:03:44;99033.19;;;37.49;23.46
25610;BME280;13479;49.044;8.716;2023-05-07T09:06:09;99039.47;;;38.86;22.18
25610;BME280;13479;49.044;8.716;2023-05-07T09:08:35;99046.50;;;40.21;19.84
25610;BME280;13479;49.044;8.716;2023-05-07T09:11:01;99060.19;;;40.91;20.11
25610;BME280;13479;49.044;8.716;2023-05-07T09:13:27;99049.94;;;40.83;19.18
25610;BME280;13479;49.044;8.716;2023-05-07T09:15:53;99058.19;;;40.61;19.45
25610;BME280;13479;49.044;8.716;2023-05-07T09:18:18;99050.97;;;41.08;18.76
25610;BME280;13479;49.044;8.716;2023-05-07T09:20:43;99051.69;;;41.90;18.26
25610;BME280;13479;49.044;8.716;2023-05-07T09:23:09;99046.91;;;40.49;18.86
25610;BME280;13479;49.044;8.716;2023-05-07T09:25:35;99049.28;;;40.12;19.47
25610;BME280;13479;49.044;8.716;2023-05-07T09:28:02;99043.91;;;39.72;19.94
25610;BME280;13479;49.044;8.716;2023-05-07T09:30:28;99041.13;;;39.63;19.75
25610;BME280;13479;49.044;8.716;2023-05-07T09:32:54;99031.06;;;40.50;19.54
25610;BME280;13479;49.044;8.716;2023-05-07T09:35:20;99040.13;;;40.20;19.39
25610;BME280;13479;49.044;8.716;2023-05-07T09:37:46;99042.59;;;40.04;19.73
25610;BME280;13479;49.044;8.716;2023-05-07T09:40:30;99035.53;;;39.36;19.99
25610;BME280;13479;49.044;8.716;2023-05-07T09:42:56;99033.06;;;38.37;21.18
25610;BME280;13479;49.044;8.716;2023-05-07T09:47:49;99015.47;;;38.41;21.09
25610;BME280;13479;49.044;8.716;2023-05-07T09:50:19;99013.25;;;38.92;20.23
25610;BME280;13479;49.044;8.716;2023-05-07T09:52:44;99004.50;;;38.05;20.99
25610;BME280;13479;49.044;8.716;2023-05-07T09:55:10;99007.81;;;36.77;22.72
25610;BME280;13479;49.044;8.716;2023-05-07T09:57:36;98982.69;;;35.66;23.98
25610;BME280;13479;49.044;8.716;2023-05-07T10:00:02;98987.69;;;35.64;23.74
25610;BME280;13479;49.044;8.716;2023-05-07T10:02:31;98974.63;;;35.69;23.17
25610;BME280;13479;49.044;8.716;2023-05-07T10:05:00;98974.22;;;35.95;23.83
25610;BME280;13479;49.044;8.716;2023-05-07T10:07:27;98974.88;;;36.53;23.31
25610;BME280;13479;49.044;8.716;2023-05-07T10:09:53;98968.09;;;37.38;22.53
25610;BME280;13479;49.044;8.716;2023-05-07T10:12:19;98973.31;;;37.99;21.94
25610;BME280;13479;49.044;8.716;2023-05-07T10:14:45;98969.09;;;37.79;21.20
25610;BME280;13479;49.044;8.716;2023-05-07T10:17:11;98981.63;;;36.75;21.94
25610;BME280;13479;49.044;8.716;2023-05-07T10:19:38;98978.19;;;36.36;22.84
25610;BME280;13479;49.044;8.716;2023-05-07T10:22:05;98961.28;;;36.38;23.03
25610;BME280;13479;49.044;8.716;2023-05-07T10:24:35;98961.31;;;36.66;23.10
25610;BME280;13479;49.044;8.716;2023-05-07T10:27:04;98968.50;;;36.67;22.87
25610;BME280;13479;49.044;8.716;2023-05-07T10:32:25;98960.81;;;36.63;23.15
25610;BME280;13479;49.044;8.716;2023-05-07T10:34:56;98960.50;;;37.07;22.18
25610;BME280;13479;49.044;8.716;2023-05-07T10:37:24;98969.94;;;36.92;22.28
25610;BME280;13479;49.044;8.716;2023-05-07T10:39:50;98976.50;;;36.21;22.88
25610;BME280;13479;49.044;8.716;2023-05-07T10:42:16;98954.91;;;35.95;23.50
25610;BME280;13479;49.044;8.716;2023-05-07T10:44:42;98954.72;;;36.06;23.73
25610;BME280;13479;49.044;8.716;2023-05-07T10:47:10;98955.03;;;36.18;23.29
25610;BME280;13479;49.044;8.716;2023-05-07T10:52:15;98945.53;;;35.20;24.05
25610;BME280;13479;49.044;8.716;2023-05-07T10:54:41;98936.59;;;35.09;24.69
25610;BME280;13479;49.044;8.716;2023-05-07T10:59:53;98930.28;;;34.06;24.41
25610;BME280;13479;49.044;8.716;2023-05-07T11:02:18;98927.75;;;33.01;25.77
25610;BME280;13479;49.044;8.716;2023-05-07T11:04:44;98922.69;;;32.63;26.95
25610;BME280;13479;49.044;8.716;2023-05-07T11:07:32;98916.22;;;32.99;27.42
25610;BME280;13479;49.044;8.716;2023-05-07T11:09:58;98920.41;;;33.31;26.17
25610;BME280;13479;49.044;8.716;2023-05-07T11:12:52;98919.47;;;32.40;26.61
25610;BME280;13479;49.044;8.716;2023-05-07T11:15:35;98907.50;;;31.74;27.57
25610;BME280;13479;49.044;8.716;2023-05-07T11:18:02;98892.88;;;31.27;28.52
25610;BME280;13479;49.044;8.716;2023-05-07T11:26:03;98886.75;;;30.78;31.50
25610;BME280;13479;49.044;8.716;2023-05-07T11:28:30;98879.63;;;30.83;30.69
25610;BME280;13479;49.044;8.716;2023-05-07T11:30:56;98876.63;;;30.89;30.52
25610;BME280;13479;49.044;8.716;2023-05-07T11:33:22;98872.78;;;30.27;32.22
25610;BME280;13479;49.044;8.716;2023-05-07T11:35:47;98877.13;;;29.42;32.50
25610;BME280;13479;49.044;8.716;2023-05-07T11:38:13;98880.00;;;29.03;33.22
25610;BME280;13479;49.044;8.716;2023-05-07T11:40:59;98877.44;;;28.46;33.80
25610;BME280;13479;49.044;8.716;2023-05-07T11:43:26;98866.00;;;28.27;33.97
25610;BME280;13479;49.044;8.716;2023-05-07T11:45:51;98865.84;;;28.39;34.10
25610;BME280;13479;49.044;8.716;2023-05-07T11:48:17;98851.13;;;28.40;34.66
25610;BME280;13479;49.044;8.716;2023-05-07T11:50:53;98855.56;;;28.69;33.82
25610;BME280;13479;49.044;8.716;2023-05-07T11:53:20;98851.44;;;28.88;33.51
25610;BME280;13479;49.044;8.716;2023-05-07T11:55:46;98853.19;;;29.00;32.75
25610;BME280;13479;49.044;8.716;2023-05-07T11:58:12;98860.94;;;28.80;33.30
25610;BME280;13479;49.044;8.716;2023-05-07T12:00:52;98855.53;;;28.63;34.05
25610;BME280;13479;49.044;8.716;2023-05-07T12:03:18;98850.50;;;28.77;33.30
25610;BME280;13479;49.044;8.716;2023-05-07T12:05:44;98851.44;;;28.88;33.52
25610;BME280;13479;49.044;8.716;2023-05-07T12:08:17;98847.56;;;28.62;34.41
25610;BME280;13479;49.044;8.716;2023-05-07T12:10:44;98842.25;;;28.28;34.96
25610;BME280;13479;49.044;8.716;2023-05-07T12:13:16;98847.34;;;28.19;34.78
25610;BME280;13479;49.044;8.716;2023-05-07T12:15:42;98848.44;;;27.84;35.57
25610;BME280;13479;49.044;8.716;2023-05-07T12:18:08;98848.13;;;27.80;34.51
25610;BME280;13479;49.044;8.716;2023-05-07T12:20:35;98831.94;;;27.73;35.50
25610;BME280;13479;49.044;8.716;2023-05-07T12:23:01;98835.00;;;27.60;35.57
25610;BME280;13479;49.044;8.716;2023-05-07T12:25:26;98843.72;;;27.28;36.59
25610;BME280;13479;49.044;8.716;2023-05-07T12:27:54;98838.09;;;27.18;36.72
25610;BME280;13479;49.044;8.716;2023-05-07T12:30:20;98838.59;;;26.86;37.39
25610;BME280;13479;49.044;8.716;2023-05-07T12:32:45;98843.44;;;26.55;38.23
25610;BME280;13479;49.044;8.716;2023-05-07T12:35:10;98847.13;;;26.48;38.30
25610;BME280;13479;49.044;8.716;2023-05-07T12:37:36;98832.88;;;26.58;37.91
25610;BME280;13479;49.044;8.716;2023-05-07T12:42:33;98821.59;;;26.38;37.74
25610;BME280;13479;49.044;8.716;2023-05-07T12:45:07;98823.97;;;26.34;37.55
25610;BME280;13479;49.044;8.716;2023-05-07T12:47:32;98819.59;;;26.33;38.17
25610;BME280;13479;49.044;8.716;2023-05-07T12:49:59;98828.63;;;26.21;39.08
25610;BME280;13479;49.044;8.716;2023-05-07T12:52:24;98838.22;;;26.00;38.15
25610;BME280;13479;49.044;8.716;2023-05-07T12:54:49;98832.06;;;25.81;39.56
25610;BME280;13479;49.044;8.716;2023-05-07T12:57:19;98846.25;;;25.59;39.52
25610;BME280;13479;49.044;8.716;2023-05-07T12:59:45;98832.91;;;25.16;39.43
25610;BME280;13479;49.044;8.716;2023-05-07T13:02:10;98836.72;;;24.65;41.57
25610;BME280;13479;49.044;8.716;2023-05-07T13:04:35;98833.06;;;24.41;41.68
25610;BME280;13479;49.044;8.716;2023-05-07T13:07:01;98846.06;;;24.20;42.44
25610;BME280;13479;49.044;8.716;2023-05-07T13:09:27;98843.41;;;24.14;43.33
25610;BME280;13479;49.044;8.716;2023-05-07T13:11:54;98870.66;;;24.00;45.75
25610;BME280;13479;49.044;8.716;2023-05-07T13:14:19;98935.31;;;23.39;51.58
25610;BME280;13479;49.044;8.716;2023-05-07T13:16:46;98978.56;;;22.48;55.64
25610;BME280;13479;49.044;8.716;2023-05-07T13:19:11;98989.47;;;21.33;56.13
25610;BME280;13479;49.044;8.716;2023-05-07T13:21:36;99029.59;;;20.30;62.13
25610;BME280;13479;49.044;8.716;2023-05-07T13:24:02;99039.75;;;19.48;64.21
25610;BME280;13479;49.044;8.716;2023-05-07T13:26:30;99048.81;;;18.80;69.34
25610;BME280;13479;49.044;8.716;2023-05-07T13:28:56;99031.72;;;18.43;73.67
25610;BME280;13479;49.044;8.716;2023-05-07T13:31:21;99032.38;;;18.07;82.92
25610;BME280;13479;49.044;8.716;2023-05-07T13:33:47;99019.56;;;17.63;86.71
25610;BME280;13479;49.044;8.716;2023-05-07T13:36:12;99012.25;;;17.25;89.59
25610;BME280;13479;49.044;8.716;2023-05-07T13:38:39;99028.16;;;16.95;92.29
25610;BME280;13479;49.044;8.716;2023-05-07T13:41:04;99046.94;;;16.78;92.89
25610;BME280;13479;49.044;8.716;2023-05-07T13:43:29;99029.94;;;16.55;95.16
25610;BME280;13479;49.044;8.716;2023-05-07T13:45:55;99050.41;;;16.31;96.86
25610;BME280;13479;49.044;8.716;2023-05-07T13:48:20;99058.59;;;16.21;96.73
25610;BME280;13479;49.044;8.716;2023-05-07T13:50:45;99038.84;;;15.89;96.38
25610;BME280;13479;49.044;8.716;2023-05-07T13:53:10;99019.91;;;15.74;97.64
25610;BME280;13479;49.044;8.716;2023-05-07T13:55:36;99032.75;;;15.62;96.97
25610;BME280;13479;49.044;8.716;2023-05-07T13:58:02;99035.72;;;15.51;95.81
25610;BME280;13479;49.044;8.716;2023-05-07T14:00:28;99040.41;;;15.40;95.62
25610;BME280;13479;49.044;8.716;2023-05-07T14:02:54;99060.47;;;15.36;95.71
25610;BME280;13479;49.044;8.716;2023-05-07T14:05:20;99051.94;;;15.41;97.58
25610;BME280;13479;49.044;8.716;2023-05-07T14:07:45;99072.69;;;15.47;98.97
25610;BME280;13479;49.044;8.716;2023-05-07T14:10:11;99129.59;;;15.66;97.94
25610;BME280;13479;49.044;8.716;2023-05-07T14:12:38;99157.53;;;15.71;91.12
25610;BME280;13479;49.044;8.716;2023-05-07T14:15:03;99091.91;;;15.42;93.90
25610;BME280;13479;49.044;8.716;2023-05-07T14:17:29;99092.63;;;15.61;94.99
25610;BME280;13479;49.044;8.716;2023-05-07T14:19:54;99098.25;;;15.50;95.28
25610;BME280;13479;49.044;8.716;2023-05-07T14:22:23;99099.66;;;15.62;96.82
25610;BME280;13479;49.044;8.716;2023-05-07T14:24:49;99104.00;;;15.63;97.35
25610;BME280;13479;49.044;8.716;2023-05-07T14:27:15;99105.69;;;15.64;98.44
25610;BME280;13479;49.044;8.716;2023-05-07T14:29:40;99118.34;;;15.54;100.00
25610;BME280;13479;49.044;8.716;2023-05-07T14:32:06;99129.09;;;15.62;100.00
25610;BME280;13479;49.044;8.716;2023-05-07T14:34:31;99140.84;;;15.69;100.00
25610;BME280;13479;49.044;8.716;2023-05-07T14:36:57;99140.84;;;15.78;100.00
25610;BME280;13479;49.044;8.716;2023-05-07T14:39:23;99143.56;;;15.86;100.00
25610;BME280;13479;49.044;8.716;2023-05-07T14:41:48;99147.25;;;15.93;100.00
25610;BME280;13479;49.044;8.716;2023-05-07T14:44:14;99129.53;;;15.92;100.00
25610;BME280;13479;49.044;8.716;2023-05-07T14:46:39;99130.88;;;15.96;100.00
25610;BME280;13479;49.044;8.716;2023-05-07T14:49:05;99129.56;;;16.00;100.00
25610;BME280;13479;49.044;8.716;2023-05-07T14:51:30;99111.31;;;16.04;100.00
25610;BME280;13479;49.044;8.716;2023-05-07T14:53:56;99096.91;;;16.05;100.00
25610;BME280;13479;49.044;8.716;2023-05-07T14:56:21;99104.13;;;16.13;100.00
25610;BME280;13479;49.044;8.716;2023-05-07T14:58:47;99104.13;;;16.29;100.00
25610;BME280;13479;49.044;8.716;2023-05-07T15:01:13;99102.78;;;16.42;100.00
25610;BME280;13479;49.044;8.716;2023-05-07T15:03:39;99102.41;;;16.61;100.00
25610;BME280;13479;49.044;8.716;2023-05-07T15:06:04;99098.06;;;16.77;100.00
25610;BME280;13479;49.044;8.716;2023-05-07T15:08:30;99097.03;;;16.86;100.00
25610;BME280;13479;49.044;8.716;2023-05-07T15:10:55;99099.72;;;16.94;100.00
25610;BME280;13479;49.044;8.716;2023-05-07T15:13:20;99102.38;;;16.94;100.00
25610;BME280;13479;49.044;8.716;2023-05-07T15:15:46;99123.16;;;17.01;100.00
25610;BME280;13479;49.044;8.716;2023-05-07T15:18:11;99122.84;;;17.04;100.00
25610;BME280;13479;49.044;8.716;2023-05-07T15:20:37;99148.63;;;17.13;100.00
25610;BME280;13479;49.044;8.716;2023-05-07T15:23:02;99141.44;;;17.05;100.00
25610;BME280;13479;49.044;8.716;2023-05-07T15:25:30;99127.88;;;16.98;100.00
25610;BME280;13479;49.044;8.716;2023-05-07T15:27:57;99117.09;;;17.07;100.00
25610;BME280;13479;49.044;8.716;2023-05-07T15:30:22;99120.47;;;17.09;100.00
25610;BME280;13479;49.044;8.716;2023-05-07T15:32:48;99121.31;;;17.09;100.00
25610;BME280;13479;49.044;8.716;2023-05-07T15:35:13;99115.25;;;17.16;100.00
25610;BME280;13479;49.044;8.716;2023-05-07T15:37:38;99140.84;;;17.35;100.00
25610;BME280;13479;49.044;8.716;2023-05-07T15:40:04;99135.97;;;17.38;100.00
25610;BME280;13479;49.044;8.716;2023-05-07T15:42:32;99109.97;;;17.39;100.00
25610;BME280;13479;49.044;8.716;2023-05-07T15:44:57;99093.97;;;17.45;100.00
25610;BME280;13479;49.044;8.716;2023-05-07T15:47:25;99106.66;;;17.60;100.00
25610;BME280;13479;49.044;8.716;2023-05-07T15:49:50;99132.31;;;17.71;99.11
25610;BME280;13479;49.044;8.716;2023-05-07T15:52:15;99105.59;;;17.69;96.89
25610;BME280;13479;49.044;8.716;2023-05-07T15:54:41;99104.44;;;17.72;92.68
25610;BME280;13479;49.044;8.716;2023-05-07T15:57:06;99074.78;;;17.65;92.25
25610;BME280;13479;49.044;8.716;2023-05-07T15:59:32;99067.91;;;17.63;92.11
25610;BME280;13479;49.044;8.716;2023-05-07T16:01:58;99079.00;;;17.59;92.24
25610;BME280;13479;49.044;8.716;2023-05-07T16:04:23;99094.44;;;17.57;90.49
25610;BME280;13479;49.044;8.716;2023-05-07T16:06:48;99080.16;;;17.57;91.27
25610;BME280;13479;49.044;8.716;2023-05-07T16:09:14;99058.22;;;17.53;92.23
25610;BME280;13479;49.044;8.716;2023-05-07T16:11:41;99066.13;;;17.55;92.44
25610;BME280;13479;49.044;8.716;2023-05-07T16:14:06;99075.47;;;17.59;92.18
25610;BME280;13479;49.044;8.716;2023-05-07T16:16:34;99077.00;;;17.62;92.51
25610;BME280;13479;49.044;8.716;2023-05-07T16:19:01;99117.72;;;17.65;89.90
25610;BME280;13479;49.044;8.716;2023-05-07T16:21:27;99094.75;;;17.63;90.45
25610;BME280;13479;49.044;8.716;2023-05-07T16:23:52;99089.03;;;17.66;90.29
25610;BME280;13479;49.044;8.716;2023-05-07T16:26:17;99108.47;;;17.68;88.78
25610;BME280;13479;49.044;8.716;2023-05-07T16:28:43;99103.59;;;17.71;88.80
25610;BME280;13479;49.044;8.716;2023-05-07T16:31:08;99090.81;;;17.73;89.12
25610;BME280;13479;49.044;8.716;2023-05-07T16:33:34;99108.41;;;17.84;87.78
25610;BME280;13479;49.044;8.716;2023-05-07T16:35:59;99101.34;;;17.83;87.38
25610;BME280;13479;49.044;8.716;2023-05-07T16:38:25;99094.97;;;17.84;86.59
25610;BME280;13479;49.044;8.716;2023-05-07T16:40:52;99097.66;;;17.84;84.65
25610;BME280;13479;49.044;8.716;2023-05-07T16:43:17;99067.69;;;17.72;84.48
25610;BME280;13479;49.044;8.716;2023-05-07T16:45:44;99068.03;;;17.69;84.69
25610;BME280;13479;49.044;8.716;2023-05-07T16:48:10;99050.16;;;17.62;85.87
25610;BME280;13479;49.044;8.716;2023-05-07T16:50:35;99043.44;;;17.57;86.42
25610;BME280;13479;49.044;8.716;2023-05-07T16:53:01;99112.84;;;17.69;82.91
25610;BME280;13479;49.044;8.716;2023-05-07T16:55:26;99078.03;;;17.52;84.33
25610;BME280;13479;49.044;8.716;2023-05-07T16:57:51;99066.47;;;17.52;84.78
25610;BME280;13479;49.044;8.716;2023-05-07T17:00:17;99035.34;;;17.34;86.79
25610;BME280;13479;49.044;8.716;2023-05-07T17:02:42;99049.94;;;17.32;87.42
25610;BME280;13479;49.044;8.716;2023-05-07T17:05:08;99065.56;;;17.28;87.51
25610;BME280;13479;49.044;8.716;2023-05-07T17:07:33;99068.16;;;17.13;87.80
25610;BME280;13479;49.044;8.716;2023-05-07T17:09:58;99110.03;;;17.22;85.62
25610;BME280;13479;49.044;8.716;2023-05-07T17:12:23;99116.44;;;17.13;85.10